createdAt,value
2022-09-25T00:03:49.288Z,3.22
2022-09-25T00:08:43.791Z,3.15
2022-09-25T00:13:38.908Z,2.83
2022-09-25T00:18:51.282Z,3.13
2022-09-25T00:23:46.578Z,2.80
2022-09-25T00:28:41.611Z,3.13
2022-09-25T00:33:35.837Z,2.88
2022-09-25T00:38:30.032Z,2.63
2022-09-25T00:43:38.052Z,2.60
2022-09-25T00:48:32.399Z,2.50
2022-09-25T00:53:32.777Z,2.63
2022-09-25T00:58:29.120Z,2.90
2022-09-25T01:03:23.185Z,3.00
2022-09-25T01:08:19.185Z,2.72
2022-09-25T01:13:14.254Z,2.70
2022-09-25T01:18:18.887Z,2.53
2022-09-25T01:23:25.279Z,2.60
2022-09-25T01:28:46.901Z,3.03
2022-09-25T01:33:47.725Z,2.38
2022-09-25T01:38:52.146Z,2.58
2022-09-25T01:43:51.413Z,2.40
2022-09-25T01:48:46.432Z,2.25
2022-09-25T01:53:47.910Z,2.22
2022-09-25T01:59:05.741Z,2.70
2022-09-25T02:04:06.132Z,2.40
2022-09-25T02:09:07.852Z,2.17
2022-09-25T02:14:10.752Z,2.38
2022-09-25T02:19:22.493Z,2.05
2022-09-25T02:24:59.309Z,2.35
2022-09-25T02:29:53.806Z,2.30
2022-09-25T02:34:47.804Z,2.03
2022-09-25T02:39:43.440Z,1.88
2022-09-25T02:44:39.553Z,2.10
2022-09-25T02:49:35.071Z,2.15
2022-09-25T02:54:58.463Z,1.90
2022-09-25T03:04:49.971Z,1.90
2022-09-25T03:09:46.928Z,1.73
2022-09-25T03:14:40.399Z,1.88
2022-09-25T03:19:37.996Z,1.92
2022-09-25T03:24:31.452Z,1.95
2022-09-25T03:29:24.675Z,2.03
2022-09-25T03:34:20.818Z,1.88
2022-09-25T03:39:18.421Z,2.00
2022-09-25T03:44:12.559Z,1.85
2022-09-25T03:49:06.609Z,2.00
2022-09-25T03:54:00.589Z,2.13
2022-09-25T03:58:54.363Z,1.92
2022-09-25T04:03:51.516Z,2.00
2022-09-25T04:08:45.395Z,1.77
2022-09-25T04:13:41.283Z,1.95
2022-09-25T04:18:35.053Z,1.92
2022-09-25T04:28:23.119Z,1.73
2022-09-25T04:33:36.335Z,1.85
2022-09-25T04:38:33.270Z,2.10
2022-09-25T04:43:30.289Z,1.80
2022-09-25T04:48:24.713Z,1.85
2022-09-25T04:53:18.801Z,1.92
2022-09-25T04:58:12.905Z,2.10
2022-09-25T05:03:07.018Z,1.60
2022-09-25T05:08:03.188Z,1.75
2022-09-25T05:13:01.842Z,2.00
2022-09-25T05:18:12.823Z,1.70
2022-09-25T05:23:06.827Z,1.80
2022-09-25T05:28:02.378Z,1.90
2022-09-25T05:32:58.328Z,1.60
2022-09-25T05:37:52.277Z,2.20
2022-09-25T05:42:46.190Z,1.83
2022-09-25T05:47:39.996Z,2.08
2022-09-25T05:52:34.040Z,1.95
2022-09-25T05:57:28.850Z,2.00
2022-09-25T06:02:22.719Z,2.40
2022-09-25T06:07:15.778Z,2.00
2022-09-25T06:12:09.644Z,1.98
2022-09-25T06:17:04.382Z,2.15
2022-09-25T06:21:58.736Z,1.80
2022-09-25T06:26:53.385Z,1.83
2022-09-25T06:31:46.959Z,1.95
2022-09-25T06:36:41.350Z,2.00
2022-09-25T06:41:36.204Z,1.98
2022-09-25T06:46:29.654Z,2.17
2022-09-25T06:51:23.784Z,2.40
2022-09-25T06:56:18.544Z,2.95
2022-09-25T07:01:13.736Z,8.38
2022-09-25T07:06:08.706Z,7.68
2022-09-25T07:11:02.992Z,5.15
2022-09-25T07:16:00.526Z,4.28
2022-09-25T07:20:55.134Z,4.65
2022-09-25T07:25:48.848Z,4.05
2022-09-25T07:30:43.212Z,5.40
2022-09-25T07:35:37.568Z,4.53
2022-09-25T07:40:32.950Z,4.13
2022-09-25T07:45:26.847Z,3.95
2022-09-25T07:50:20.352Z,4.60
2022-09-25T07:55:14.350Z,3.88
2022-09-25T08:00:11.108Z,3.42
2022-09-25T08:05:10.738Z,4.10
2022-09-25T08:10:04.911Z,3.30
2022-09-25T08:14:59.116Z,10.20
2022-09-25T08:19:52.595Z,7.93
2022-09-25T08:24:47.032Z,5.68
2022-09-25T08:29:41.632Z,4.75
2022-09-25T08:34:41.031Z,4.10
2022-09-25T08:39:35.540Z,4.43
2022-09-25T08:45:22.015Z,4.00
2022-09-25T08:50:23.763Z,3.60
2022-09-25T08:55:48.860Z,3.67
2022-09-25T09:00:42.399Z,3.85
2022-09-25T09:05:41.439Z,3.70
2022-09-25T09:10:56.478Z,3.83
2022-09-25T09:16:01.939Z,3.65
2022-09-25T09:20:57.454Z,3.33
2022-09-25T09:25:59.667Z,3.08
2022-09-25T09:31:18.306Z,3.30
2022-09-25T09:36:39.217Z,3.40
2022-09-25T09:41:45.789Z,3.40
2022-09-25T09:47:06.606Z,2.97
2022-09-25T09:52:18.127Z,3.00
2022-09-25T09:57:28.715Z,2.90
2022-09-25T10:02:54.746Z,2.80
2022-09-25T10:07:57.209Z,3.70
2022-09-25T10:12:52.848Z,3.20
2022-09-25T10:17:46.399Z,3.28
2022-09-25T10:22:43.839Z,2.80
2022-09-25T10:27:46.371Z,3.47
2022-09-25T10:32:57.962Z,2.75
2022-09-25T10:37:56.929Z,3.10
2022-09-25T10:42:50.570Z,4.57
2022-09-25T10:48:03.039Z,5.72
2022-09-25T10:53:00.267Z,6.45
2022-09-25T10:57:58.606Z,7.32
2022-09-25T11:02:58.334Z,9.45
2022-09-25T11:07:55.251Z,9.63
2022-09-25T11:12:50.285Z,8.98
2022-09-25T11:17:44.820Z,8.65
2022-09-25T11:22:44.017Z,6.80
2022-09-25T11:27:58.906Z,6.85
2022-09-25T11:32:52.926Z,7.00
2022-09-25T11:38:46.109Z,6.43
2022-09-25T11:44:00.588Z,6.25
2022-09-25T11:49:02.906Z,6.00
2022-09-25T11:54:17.837Z,5.57
2022-09-25T11:59:39.619Z,4.80
2022-09-25T12:04:47.370Z,5.43
2022-09-25T12:10:06.801Z,9.02
2022-09-25T12:15:27.368Z,6.93
2022-09-25T12:20:47.033Z,6.32
2022-09-25T12:26:02.925Z,6.95
2022-09-25T12:31:20.346Z,6.05
2022-09-25T12:36:22.502Z,6.18
2022-09-25T12:41:34.604Z,6.07
2022-09-25T12:46:56.173Z,6.60
2022-09-25T12:51:55.549Z,5.80
2022-09-25T12:56:55.024Z,5.88
2022-09-25T13:02:12.578Z,4.57
2022-09-25T13:07:38.659Z,5.32
2022-09-25T13:12:37.928Z,5.10
2022-09-25T13:17:31.068Z,4.63
2022-09-25T13:22:26.003Z,4.43
2022-09-25T13:27:23.564Z,4.50
2022-09-25T13:32:19.759Z,4.50
2022-09-25T13:37:34.081Z,5.13
2022-09-25T13:42:46.321Z,4.63
2022-09-25T13:47:46.893Z,5.50
2022-09-25T13:52:40.563Z,4.57
2022-09-25T13:58:02.690Z,4.70
2022-09-25T14:03:03.921Z,5.45
2022-09-25T14:08:00.888Z,5.40
2022-09-25T14:12:55.098Z,5.35
2022-09-25T14:17:49.645Z,5.72
2022-09-25T14:22:54.563Z,6.20
2022-09-25T14:27:52.621Z,4.60
2022-09-25T14:33:19.913Z,4.88
2022-09-25T14:38:23.139Z,4.55
2022-09-25T14:43:54.626Z,4.82
2022-09-25T14:49:27.827Z,4.70
2022-09-25T14:54:23.679Z,4.57
2022-09-25T14:59:24.972Z,4.40
2022-09-25T15:04:30.486Z,4.93
2022-09-25T15:09:47.780Z,4.50
2022-09-25T15:14:41.671Z,5.03
2022-09-25T15:19:42.712Z,5.13
2022-09-25T15:24:36.790Z,5.93
2022-09-25T15:29:32.893Z,5.53
2022-09-25T15:34:31.657Z,4.80
2022-09-25T15:39:28.500Z,5.10
2022-09-25T15:44:26.873Z,4.47
2022-09-25T15:49:28.860Z,5.50
2022-09-25T15:54:34.707Z,5.07
2022-09-25T16:00:03.513Z,4.97
2022-09-25T16:04:59.733Z,5.50
2022-09-25T16:10:14.971Z,7.03
2022-09-25T16:15:32.151Z,5.53
2022-09-25T16:20:35.317Z,5.55
2022-09-25T16:25:35.732Z,5.55
2022-09-25T16:30:28.836Z,5.45
2022-09-25T16:36:09.347Z,5.93
2022-09-25T16:41:11.177Z,5.90
2022-09-25T16:46:19.039Z,6.50
2022-09-25T16:51:22.478Z,6.85
2022-09-25T16:56:26.293Z,8.20
2022-09-25T17:01:21.892Z,8.85
2022-09-25T17:06:16.122Z,7.55
2022-09-25T17:11:11.110Z,6.18
2022-09-25T17:16:06.046Z,6.75
2022-09-25T17:21:01.084Z,6.75
2022-09-25T17:26:18.469Z,6.70
2022-09-25T17:31:37.757Z,7.60
2022-09-25T17:36:32.088Z,19.30
2022-09-25T17:41:32.545Z,26.85
2022-09-25T17:46:34.209Z,32.28
2022-09-25T17:51:29.220Z,29.00
2022-09-25T17:56:23.572Z,26.75
2022-09-25T18:01:23.638Z,25.38
2022-09-25T18:06:17.179Z,23.42
2022-09-25T18:11:11.460Z,24.05
2022-09-25T18:16:06.816Z,20.83
2022-09-25T18:21:32.893Z,20.05
2022-09-25T18:26:31.167Z,19.58
2022-09-25T18:31:25.884Z,17.52
2022-09-25T18:36:21.349Z,17.92
2022-09-25T18:41:15.385Z,17.55
2022-09-25T18:46:10.454Z,17.85
2022-09-25T18:51:06.008Z,15.85
2022-09-25T18:56:01.166Z,15.93
2022-09-25T19:00:54.710Z,16.15
2022-09-25T19:06:01.403Z,15.73
2022-09-25T19:10:55.451Z,15.68
2022-09-25T19:15:50.330Z,13.68
2022-09-25T19:20:55.129Z,13.57
2022-09-25T19:25:55.930Z,13.48
2022-09-25T19:30:56.724Z,13.70
2022-09-25T19:35:50.073Z,14.15
2022-09-25T19:40:46.325Z,13.93
2022-09-25T19:45:40.371Z,13.75
2022-09-25T19:50:34.643Z,14.45
2022-09-25T19:55:32.124Z,13.68
2022-09-25T20:00:26.755Z,13.57
2022-09-25T20:05:26.782Z,13.98
2022-09-25T20:10:22.135Z,13.25
2022-09-25T20:15:16.348Z,13.75
2022-09-25T20:20:10.569Z,13.82
2022-09-25T20:25:05.523Z,13.93
2022-09-25T20:30:00.191Z,13.93
2022-09-25T20:34:54.036Z,15.20
2022-09-25T20:39:48.101Z,13.40
2022-09-25T20:44:42.413Z,14.15
2022-09-25T20:49:36.422Z,15.40
2022-09-25T20:54:30.687Z,14.88
2022-09-25T20:59:25.593Z,13.52
2022-09-25T21:04:20.092Z,14.82
2022-09-25T21:09:20.518Z,14.32
2022-09-25T21:14:21.655Z,13.63
2022-09-25T21:19:16.660Z,14.48
2022-09-25T21:24:14.657Z,13.45
2022-09-25T21:29:10.741Z,13.45
2022-09-25T21:34:06.237Z,12.27
2022-09-25T21:39:00.792Z,13.10
2022-09-25T21:44:19.761Z,11.98
2022-09-25T21:49:18.389Z,11.98
2022-09-25T21:54:16.664Z,12.77
2022-09-25T21:59:11.288Z,11.82
2022-09-25T22:04:06.201Z,11.45
2022-09-25T22:09:01.467Z,11.90
2022-09-25T22:13:58.404Z,10.82
2022-09-25T22:18:57.920Z,10.82
2022-09-25T22:23:52.242Z,10.90
2022-09-25T22:28:47.131Z,10.20
2022-09-25T22:33:41.339Z,9.85
2022-09-25T22:38:36.552Z,10.05
2022-09-25T22:43:33.961Z,9.77
2022-09-25T22:48:29.082Z,9.50
2022-09-25T22:53:24.283Z,9.35
2022-09-25T22:58:19.802Z,9.43
2022-09-25T23:03:14.091Z,9.27
2022-09-25T23:08:08.758Z,9.35
2022-09-25T23:13:02.445Z,9.05
2022-09-25T23:17:56.334Z,8.82
2022-09-25T23:22:50.286Z,9.57
2022-09-25T23:27:44.662Z,9.20
2022-09-25T23:32:42.853Z,8.70
2022-09-25T23:37:36.791Z,8.63
2022-09-25T23:42:31.594Z,8.32
2022-09-25T23:47:25.463Z,8.60
2022-09-25T23:52:18.556Z,9.00
2022-09-25T23:57:12.235Z,8.60
